createdAt,value
2022-08-24T00:02:06.743Z,101248.19
2022-08-24T00:04:33.900Z,101239.88
2022-08-24T00:07:02.221Z,101241.28
2022-08-24T00:09:30.280Z,101238.94
2022-08-24T00:11:57.083Z,101248.00
2022-08-24T00:14:24.113Z,101247.22
2022-08-24T00:16:50.768Z,101257.88
2022-08-24T00:19:17.580Z,101248.31
2022-08-24T00:21:44.087Z,101248.63
2022-08-24T00:24:11.120Z,101245.19
2022-08-24T00:26:38.692Z,101237.66
2022-08-24T00:29:07.573Z,101248.78
2022-08-24T00:31:34.587Z,101240.47
2022-08-24T00:34:01.272Z,101241.41
2022-08-24T00:36:28.342Z,101232.31
2022-08-24T00:38:54.865Z,101235.31
2022-08-24T00:41:22.477Z,101242.50
2022-08-24T00:43:58.631Z,101242.97
2022-08-24T00:46:34.027Z,101250.00
2022-08-24T00:49:23.984Z,101251.88
2022-08-24T00:52:04.664Z,101252.69
2022-08-24T00:54:36.600Z,101247.34
2022-08-24T00:57:07.339Z,101253.91
2022-08-24T00:59:43.127Z,101254.38
2022-08-24T01:02:17.729Z,101263.00
2022-08-24T01:04:52.516Z,101263.22
2022-08-24T01:07:20.869Z,101261.38
2022-08-24T01:09:47.426Z,101252.72
2022-08-24T01:12:14.059Z,101259.44
2022-08-24T01:14:40.654Z,101260.69
2022-08-24T01:17:25.860Z,101263.81
2022-08-24T01:19:57.126Z,101262.53
2022-08-24T01:22:34.594Z,101249.38
2022-08-24T01:25:01.488Z,101257.19
2022-08-24T01:27:28.398Z,101245.75
2022-08-24T01:29:55.875Z,101258.13
2022-08-24T01:32:27.971Z,101253.41
2022-08-24T01:34:56.226Z,101262.78
2022-08-24T01:37:23.154Z,101263.41
2022-08-24T01:39:52.006Z,101258.69
2022-08-24T01:42:18.689Z,101261.16
2022-08-24T01:44:46.071Z,101260.53
2022-08-24T01:47:14.171Z,101261.78
2022-08-24T01:49:43.966Z,101257.88
2022-08-24T01:52:14.881Z,101256.72
2022-08-24T01:54:43.461Z,101259.25
2022-08-24T01:57:10.920Z,101262.53
2022-08-24T01:59:42.763Z,101264.69
2022-08-24T02:02:19.739Z,101269.19
2022-08-24T02:04:46.260Z,101260.69
2022-08-24T02:07:13.439Z,101263.44
2022-08-24T02:09:41.229Z,101260.44
2022-08-24T02:12:08.901Z,101255.41
2022-08-24T02:14:35.907Z,101259.97
2022-08-24T02:17:04.530Z,101262.31
2022-08-24T02:19:31.632Z,101266.41
2022-08-24T02:21:58.192Z,101273.25
2022-08-24T02:24:24.678Z,101268.41
2022-08-24T02:26:51.244Z,101269.47
2022-08-24T02:29:17.745Z,101266.16
2022-08-24T02:31:44.871Z,101275.09
2022-08-24T02:34:11.413Z,101270.38
2022-08-24T02:36:38.989Z,101267.38
2022-08-24T02:39:07.445Z,101268.41
2022-08-24T02:41:34.546Z,101272.94
2022-08-24T02:44:01.099Z,101272.28
2022-08-24T02:46:29.791Z,101280.72
2022-08-24T02:49:10.688Z,101272.84
2022-08-24T02:51:44.773Z,101273.00
2022-08-24T02:54:13.355Z,101275.34
2022-08-24T02:56:39.854Z,101274.66
2022-08-24T02:59:06.670Z,101285.63
2022-08-24T03:01:33.343Z,101270.88
2022-08-24T03:03:59.956Z,101279.53
2022-08-24T03:06:26.587Z,101270.88
2022-08-24T03:08:56.296Z,101274.28
2022-08-24T03:11:27.600Z,101277.44
2022-08-24T03:13:55.484Z,101272.25
2022-08-24T03:16:22.142Z,101277.09
2022-08-24T03:18:48.855Z,101276.63
2022-08-24T03:21:16.300Z,101281.00
2022-08-24T03:23:43.000Z,101283.16
2022-08-24T03:26:09.976Z,101272.06
2022-08-24T03:28:36.635Z,101275.75
2022-08-24T03:31:03.400Z,101272.16
2022-08-24T03:33:30.262Z,101275.53
2022-08-24T03:35:56.793Z,101270.81
2022-08-24T03:38:23.512Z,101276.53
2022-08-24T03:40:50.354Z,101267.44
2022-08-24T03:43:35.740Z,101272.75
2022-08-24T03:46:05.120Z,101280.06
2022-08-24T03:48:31.706Z,101281.41
2022-08-24T03:50:58.335Z,101273.78
2022-08-24T03:53:25.264Z,101274.56
2022-08-24T03:55:52.288Z,101277.16
2022-08-24T03:58:18.845Z,101280.44
2022-08-24T04:00:45.589Z,101281.66
2022-08-24T04:03:12.749Z,101281.44
2022-08-24T04:05:40.348Z,101284.69
2022-08-24T04:08:06.862Z,101279.44
2022-08-24T04:10:33.999Z,101279.78
2022-08-24T04:13:01.596Z,101285.41
2022-08-24T04:15:29.956Z,101280.66
2022-08-24T04:17:56.458Z,101281.44
2022-08-24T04:20:24.092Z,101281.88
2022-08-24T04:22:51.449Z,101281.56
2022-08-24T04:25:25.837Z,101282.47
2022-08-24T04:27:52.373Z,101286.84
2022-08-24T04:30:21.789Z,101278.09
2022-08-24T04:32:48.565Z,101281.00
2022-08-24T04:35:15.064Z,101285.97
2022-08-24T04:37:41.658Z,101282.50
2022-08-24T04:40:09.071Z,101286.88
2022-08-24T04:42:37.340Z,101299.22
2022-08-24T04:45:04.454Z,101300.13
2022-08-24T04:47:30.968Z,101292.28
2022-08-24T04:49:57.458Z,101282.28
2022-08-24T04:52:24.229Z,101287.41
2022-08-24T04:54:50.700Z,101296.53
2022-08-24T04:57:18.366Z,101299.81
2022-08-24T04:59:45.330Z,101300.25
2022-08-24T05:02:11.894Z,101301.47
2022-08-24T05:04:38.532Z,101302.72
2022-08-24T05:07:05.518Z,101306.31
2022-08-24T05:09:32.049Z,101305.88
2022-08-24T05:11:58.546Z,101308.56
2022-08-24T05:14:28.646Z,101304.41
2022-08-24T05:16:56.049Z,101310.03
2022-08-24T05:19:23.963Z,101306.75
2022-08-24T05:21:50.698Z,101313.03
2022-08-24T05:24:18.295Z,101319.69
2022-08-24T05:26:45.567Z,101319.13
2022-08-24T05:29:12.226Z,101318.19
2022-08-24T05:31:38.790Z,101324.53
2022-08-24T05:34:05.580Z,101325.94
2022-08-24T05:36:35.014Z,101333.03
2022-08-24T05:39:06.974Z,101326.84
2022-08-24T05:41:37.821Z,101331.59
2022-08-24T05:44:06.654Z,101330.91
2022-08-24T05:46:33.485Z,101336.16
2022-08-24T05:49:00.499Z,101334.81
2022-08-24T05:51:28.046Z,101339.06
2022-08-24T05:53:54.701Z,101336.47
2022-08-24T05:56:21.275Z,101336.69
2022-08-24T05:58:48.606Z,101349.38
2022-08-24T06:01:21.113Z,101345.66
2022-08-24T06:03:49.215Z,101351.16
2022-08-24T06:06:16.735Z,101352.75
2022-08-24T06:08:46.277Z,101352.59
2022-08-24T06:11:20.837Z,101351.25
2022-08-24T06:13:47.803Z,101353.94
2022-08-24T06:16:22.106Z,101349.97
2022-08-24T06:18:50.706Z,101353.94
2022-08-24T06:21:20.887Z,101355.16
2022-08-24T06:23:48.559Z,101361.91
2022-08-24T06:26:34.189Z,101357.06
2022-08-24T06:29:00.666Z,101364.50
2022-08-24T06:31:27.672Z,101366.38
2022-08-24T06:33:55.108Z,101368.16
2022-08-24T06:36:22.717Z,101373.19
2022-08-24T06:38:49.913Z,101378.13
2022-08-24T06:41:17.233Z,101375.84
2022-08-24T06:43:44.163Z,101377.50
2022-08-24T06:46:11.034Z,101384.75
2022-08-24T06:48:37.609Z,101384.38
2022-08-24T06:51:09.877Z,101383.94
2022-08-24T06:53:36.557Z,101384.44
2022-08-24T06:56:04.542Z,101384.72
2022-08-24T06:58:32.394Z,101386.00
2022-08-24T07:01:07.396Z,101379.44
2022-08-24T07:03:33.891Z,101386.56
2022-08-24T07:06:02.664Z,101389.25
2022-08-24T07:08:29.645Z,101385.84
2022-08-24T07:10:56.123Z,101387.44
2022-08-24T07:13:22.664Z,101386.09
2022-08-24T07:15:51.785Z,101390.31
2022-08-24T07:18:19.878Z,101398.16
2022-08-24T07:20:47.607Z,101399.28
2022-08-24T07:23:14.914Z,101402.25
2022-08-24T07:25:44.886Z,101401.81
2022-08-24T07:28:15.273Z,101402.56
2022-08-24T07:30:42.688Z,101406.78
2022-08-24T07:33:09.578Z,101408.16
2022-08-24T07:35:37.527Z,101401.03
2022-08-24T07:38:06.082Z,101405.25
2022-08-24T07:40:55.886Z,101406.94
2022-08-24T07:43:21.298Z,101416.63
2022-08-24T07:45:49.568Z,101406.97
2022-08-24T07:48:16.135Z,101418.09
2022-08-24T07:50:42.780Z,101414.59
2022-08-24T07:53:13.871Z,101419.25
2022-08-24T07:55:52.043Z,101413.53
2022-08-24T07:58:18.855Z,101420.41
2022-08-24T08:00:49.434Z,101414.50
2022-08-24T08:03:16.075Z,101415.03
2022-08-24T08:05:43.106Z,101419.34
2022-08-24T08:08:09.628Z,101416.63
2022-08-24T08:10:36.265Z,101423.31
2022-08-24T08:13:06.392Z,101426.25
2022-08-24T08:15:33.151Z,101426.94
2022-08-24T08:17:59.692Z,101418.44
2022-08-24T08:20:26.174Z,101415.78
2022-08-24T08:23:11.553Z,101425.56
2022-08-24T08:25:38.381Z,101422.47
2022-08-24T08:28:18.509Z,101421.66
2022-08-24T08:30:53.737Z,101425.81
2022-08-24T08:33:20.805Z,101428.09
2022-08-24T08:35:49.130Z,101432.00
2022-08-24T08:38:15.736Z,101432.22
2022-08-24T08:40:45.301Z,101426.94
2022-08-24T08:43:43.042Z,101425.03
2022-08-24T08:46:15.499Z,101431.44
2022-08-24T08:49:15.311Z,101425.66
2022-08-24T08:51:58.590Z,101426.59
2022-08-24T08:54:44.361Z,101425.13
2022-08-24T08:57:34.008Z,101423.00
2022-08-24T09:00:22.330Z,101419.44
2022-08-24T09:03:17.436Z,101420.59
2022-08-24T09:06:05.985Z,101429.00
2022-08-24T09:08:57.306Z,101424.72
2022-08-24T09:11:50.449Z,101428.16
2022-08-24T09:14:45.860Z,101421.44
2022-08-24T09:17:21.040Z,101408.81
2022-08-24T09:20:09.073Z,101425.19
2022-08-24T09:22:43.410Z,101422.69
2022-08-24T09:25:38.841Z,101420.38
2022-08-24T09:28:34.417Z,101416.03
2022-08-24T09:31:38.605Z,101419.22
2022-08-24T09:34:25.008Z,101417.69
2022-08-24T09:36:51.455Z,101411.47
2022-08-24T09:39:55.456Z,101415.13
2022-08-24T09:42:47.108Z,101416.38
2022-08-24T09:45:22.592Z,101412.25
2022-08-24T09:48:41.954Z,101409.94
2022-08-24T09:51:28.640Z,101411.75
2022-08-24T09:54:04.165Z,101403.50
2022-08-24T09:57:11.686Z,101408.69
2022-08-24T09:59:47.703Z,101406.34
2022-08-24T10:02:32.661Z,101402.75
2022-08-24T10:04:59.149Z,101402.47
2022-08-24T10:07:49.000Z,101396.50
2022-08-24T10:10:34.664Z,101397.81
2022-08-24T10:13:10.290Z,101386.59
2022-08-24T10:16:13.843Z,101388.63
2022-08-24T10:18:54.767Z,101387.25
2022-08-24T10:21:36.894Z,101380.69
2022-08-24T10:24:21.689Z,101385.56
2022-08-24T10:27:13.687Z,101378.38
2022-08-24T10:30:04.378Z,101375.06
2022-08-24T10:32:52.075Z,101375.53
2022-08-24T10:35:56.574Z,101369.75
2022-08-24T10:38:50.554Z,101370.38
2022-08-24T10:41:54.686Z,101372.31
2022-08-24T10:44:46.121Z,101366.28
2022-08-24T10:47:21.370Z,101366.34
2022-08-24T10:50:12.757Z,101365.69
2022-08-24T10:53:05.282Z,101363.63
2022-08-24T10:55:34.591Z,101369.84
2022-08-24T10:58:13.227Z,101370.69
2022-08-24T11:00:40.285Z,101359.22
2022-08-24T11:03:21.438Z,101364.16
2022-08-24T11:05:56.996Z,101355.97
2022-08-24T11:08:33.453Z,101350.75
2022-08-24T11:11:25.122Z,101355.25
2022-08-24T11:14:06.428Z,101361.84
2022-08-24T11:16:44.828Z,101355.38
2022-08-24T11:19:14.405Z,101351.75
2022-08-24T11:21:50.868Z,101349.75
2022-08-24T11:24:24.335Z,101358.47
2022-08-24T11:26:56.251Z,101349.91
2022-08-24T11:29:30.623Z,101359.56
2022-08-24T11:31:58.837Z,101347.44
2022-08-24T11:34:37.748Z,101344.72
2022-08-24T11:37:05.156Z,101341.91
2022-08-24T11:39:37.135Z,101336.94
2022-08-24T11:42:03.595Z,101340.25
2022-08-24T11:44:41.774Z,101335.97
2022-08-24T11:47:24.082Z,101338.09
2022-08-24T11:50:21.784Z,101345.03
2022-08-24T11:53:03.598Z,101341.97
2022-08-24T11:55:57.492Z,101337.09
2022-08-24T11:58:44.946Z,101335.69
2022-08-24T12:01:23.333Z,101337.00
2022-08-24T12:04:00.168Z,101332.50
2022-08-24T12:06:45.889Z,101330.91
2022-08-24T12:09:22.122Z,101332.91
2022-08-24T12:12:00.278Z,101331.78
2022-08-24T12:14:44.678Z,101326.38
2022-08-24T12:17:18.792Z,101327.59
2022-08-24T12:20:21.179Z,101319.22
2022-08-24T12:22:49.429Z,101320.41
2022-08-24T12:25:36.056Z,101312.56
2022-08-24T12:28:04.800Z,101311.56
2022-08-24T12:30:31.714Z,101305.88
2022-08-24T12:33:06.838Z,101310.97
2022-08-24T12:35:54.045Z,101304.66
2022-08-24T12:38:26.974Z,101312.09
2022-08-24T12:40:58.595Z,101309.50
2022-08-24T12:43:48.896Z,101308.53
2022-08-24T12:46:20.627Z,101308.34
2022-08-24T12:48:57.186Z,101305.41
2022-08-24T12:52:14.785Z,101300.59
2022-08-24T12:55:14.319Z,101302.75
2022-08-24T12:57:54.559Z,101291.97
2022-08-24T13:00:44.090Z,101290.56
2022-08-24T13:03:38.441Z,101296.00
2022-08-24T13:06:31.746Z,101282.09
2022-08-24T13:09:30.136Z,101289.38
2022-08-24T13:12:00.555Z,101292.22
2022-08-24T13:14:29.747Z,101282.88
2022-08-24T13:16:58.949Z,101289.44
2022-08-24T13:19:28.501Z,101290.28
2022-08-24T13:22:12.761Z,101292.22
2022-08-24T13:24:39.616Z,101283.53
2022-08-24T13:27:12.211Z,101286.78
2022-08-24T13:29:42.820Z,101282.22
2022-08-24T13:32:20.931Z,101285.94
2022-08-24T13:34:49.293Z,101269.91
2022-08-24T13:37:24.619Z,101273.09
2022-08-24T13:40:19.465Z,101279.13
2022-08-24T13:43:21.941Z,101274.81
2022-08-24T13:46:13.254Z,101269.94
2022-08-24T13:48:55.896Z,101260.56
2022-08-24T13:51:25.412Z,101258.13
2022-08-24T13:54:05.727Z,101255.66
2022-08-24T13:56:35.036Z,101255.47
2022-08-24T13:59:35.215Z,101255.78
2022-08-24T14:02:16.080Z,101247.34
2022-08-24T14:04:49.149Z,101242.91
2022-08-24T14:07:24.318Z,101240.94
2022-08-24T14:09:50.721Z,101240.56
2022-08-24T14:12:38.928Z,101241.47
2022-08-24T14:16:11.636Z,101234.69
2022-08-24T14:18:56.143Z,101232.53
2022-08-24T14:21:35.487Z,101229.53
2022-08-24T14:24:11.705Z,101226.34
2022-08-24T14:26:38.641Z,101226.94
2022-08-24T14:29:20.360Z,101223.13
2022-08-24T14:32:00.237Z,101228.84
2022-08-24T14:35:19.503Z,101227.47
2022-08-24T14:38:01.609Z,101223.63
2022-08-24T14:40:42.780Z,101217.56
2022-08-24T14:43:15.367Z,101227.53
2022-08-24T14:46:29.134Z,101216.66
2022-08-24T14:49:16.663Z,101220.06
2022-08-24T14:52:10.919Z,101220.84
2022-08-24T14:55:03.554Z,101225.50
2022-08-24T14:57:49.962Z,101218.50
2022-08-24T15:00:24.448Z,101215.66
2022-08-24T15:02:50.828Z,101211.47
2022-08-24T15:05:32.711Z,101209.44
2022-08-24T15:08:18.169Z,101211.59
2022-08-24T15:10:58.972Z,101208.53
2022-08-24T15:13:28.132Z,101212.19
2022-08-24T15:16:05.000Z,101207.00
2022-08-24T15:18:50.746Z,101209.50
2022-08-24T15:21:26.413Z,101206.75
2022-08-24T15:24:01.353Z,101199.91
2022-08-24T15:27:03.673Z,101205.06
2022-08-24T15:29:32.891Z,101194.75
2022-08-24T15:32:12.172Z,101195.31
2022-08-24T15:34:52.982Z,101193.50
2022-08-24T15:37:47.802Z,101196.34
2022-08-24T15:40:29.628Z,101184.81
2022-08-24T15:43:03.426Z,101197.09
2022-08-24T15:45:31.684Z,101190.38
2022-08-24T15:48:01.099Z,101179.97
2022-08-24T15:50:32.602Z,101189.94
2022-08-24T15:53:08.455Z,101186.56
2022-08-24T15:55:38.756Z,101186.53
2022-08-24T15:58:18.456Z,101182.28
2022-08-24T16:01:11.377Z,101176.53
2022-08-24T16:03:49.859Z,101180.34
2022-08-24T16:06:18.276Z,101184.38
2022-08-24T16:08:59.077Z,101177.53
2022-08-24T16:11:34.256Z,101179.09
2022-08-24T16:14:03.122Z,101182.84
2022-08-24T16:16:35.158Z,101178.38
2022-08-24T16:19:08.388Z,101179.50
2022-08-24T16:21:51.245Z,101184.41
2022-08-24T16:24:21.088Z,101172.81
2022-08-24T16:26:47.626Z,101174.28
2022-08-24T16:29:38.819Z,101182.28
2022-08-24T16:32:30.094Z,101181.72
2022-08-24T16:35:08.519Z,101175.47
2022-08-24T16:37:35.441Z,101176.75
2022-08-24T16:40:02.046Z,101182.41
2022-08-24T16:42:30.408Z,101169.56
2022-08-24T16:44:58.877Z,101167.47
2022-08-24T16:47:26.753Z,101176.97
2022-08-24T16:49:53.316Z,101175.00
2022-08-24T16:52:20.836Z,101181.22
2022-08-24T16:54:48.156Z,101178.56
2022-08-24T16:57:19.027Z,101175.81
2022-08-24T16:59:48.219Z,101177.81
2022-08-24T17:02:17.017Z,101170.44
2022-08-24T17:04:43.793Z,101176.97
2022-08-24T17:07:13.565Z,101179.19
2022-08-24T17:09:42.734Z,101177.56
2022-08-24T17:12:09.582Z,101173.66
2022-08-24T17:14:38.576Z,101169.03
2022-08-24T17:17:11.708Z,101177.66
2022-08-24T17:19:39.307Z,101175.38
2022-08-24T17:22:15.602Z,101176.91
2022-08-24T17:24:43.291Z,101172.13
2022-08-24T17:27:10.016Z,101173.88
2022-08-24T17:29:36.587Z,101177.66
2022-08-24T17:32:03.486Z,101184.34
2022-08-24T17:34:30.126Z,101186.09
2022-08-24T17:36:57.321Z,101185.22
2022-08-24T17:39:24.484Z,101192.13
2022-08-24T17:41:52.665Z,101189.66
2022-08-24T17:44:25.799Z,101187.97
2022-08-24T17:46:57.502Z,101190.19
2022-08-24T17:49:24.366Z,101208.34
2022-08-24T17:51:50.941Z,101210.50
2022-08-24T17:54:18.188Z,101202.50
2022-08-24T17:56:48.629Z,101210.28
2022-08-24T17:59:25.566Z,101212.53
2022-08-24T18:01:55.622Z,101211.03
2022-08-24T18:04:25.889Z,101215.84
2022-08-24T18:06:52.620Z,101210.72
2022-08-24T18:09:28.970Z,101214.97
2022-08-24T18:11:56.552Z,101211.66
2022-08-24T18:14:26.744Z,101215.69
2022-08-24T18:16:57.138Z,101217.88
2022-08-24T18:19:25.179Z,101219.56
2022-08-24T18:21:52.365Z,101218.91
2022-08-24T18:24:19.692Z,101220.00
2022-08-24T18:26:48.075Z,101222.16
2022-08-24T18:29:21.522Z,101222.56
2022-08-24T18:31:48.689Z,101221.09
2022-08-24T18:34:21.259Z,101227.19
2022-08-24T18:36:48.419Z,101230.91
2022-08-24T18:39:15.423Z,101227.34
2022-08-24T18:41:44.287Z,101230.22
2022-08-24T18:44:21.518Z,101230.06
2022-08-24T18:46:48.930Z,101239.69
2022-08-24T18:49:17.326Z,101247.03
2022-08-24T18:51:45.018Z,101239.28
2022-08-24T18:54:19.087Z,101248.19
2022-08-24T18:56:45.710Z,101241.19
2022-08-24T18:59:14.577Z,101245.09
2022-08-24T19:02:02.029Z,101254.22
2022-08-24T19:04:33.312Z,101244.63
2022-08-24T19:07:00.738Z,101256.34
2022-08-24T19:09:32.011Z,101248.03
2022-08-24T19:12:00.753Z,101246.75
2022-08-24T19:14:27.412Z,101249.09
2022-08-24T19:16:54.066Z,101251.69
2022-08-24T19:19:22.240Z,101249.34
2022-08-24T19:21:49.411Z,101249.34
2022-08-24T19:24:18.677Z,101243.91
2022-08-24T19:26:45.173Z,101248.56
2022-08-24T19:29:12.267Z,101252.91
2022-08-24T19:31:38.939Z,101252.13
2022-08-24T19:34:06.092Z,101258.31
2022-08-24T19:36:33.114Z,101244.81
2022-08-24T19:39:00.211Z,101258.53
2022-08-24T19:41:36.761Z,101264.22
2022-08-24T19:44:27.158Z,101252.53
2022-08-24T19:46:54.740Z,101269.81
2022-08-24T19:49:21.689Z,101262.00
2022-08-24T19:51:48.319Z,101261.44
2022-08-24T19:54:14.832Z,101253.09
2022-08-24T19:56:41.528Z,101257.47
2022-08-24T19:59:20.907Z,101260.00
2022-08-24T20:01:47.545Z,101259.16
2022-08-24T20:04:14.175Z,101261.69
2022-08-24T20:06:40.945Z,101261.16
2022-08-24T20:09:19.570Z,101261.06
2022-08-24T20:11:49.734Z,101260.25
2022-08-24T20:14:16.282Z,101254.50
2022-08-24T20:16:42.897Z,101263.28
2022-08-24T20:19:11.286Z,101256.00
2022-08-24T20:21:38.569Z,101262.06
2022-08-24T20:24:06.396Z,101261.25
2022-08-24T20:26:40.995Z,101264.78
2022-08-24T20:29:08.362Z,101254.66
2022-08-24T20:31:35.198Z,101263.91
2022-08-24T20:34:02.422Z,101258.47
2022-08-24T20:36:34.653Z,101264.09
2022-08-24T20:39:02.899Z,101262.47
2022-08-24T20:41:31.061Z,101266.81
2022-08-24T20:43:57.744Z,101257.72
2022-08-24T20:46:26.817Z,101258.97
2022-08-24T20:48:55.573Z,101264.19
2022-08-24T20:51:23.800Z,101259.66
2022-08-24T20:53:50.579Z,101263.22
2022-08-24T20:56:32.694Z,101265.94
2022-08-24T20:59:02.525Z,101269.53
2022-08-24T21:01:30.408Z,101270.03
2022-08-24T21:04:00.243Z,101267.91
2022-08-24T21:06:30.045Z,101271.38
2022-08-24T21:08:57.063Z,101269.81
2022-08-24T21:11:23.554Z,101269.75
2022-08-24T21:13:50.056Z,101270.44
2022-08-24T21:16:16.880Z,101267.50
2022-08-24T21:18:43.693Z,101267.16
2022-08-24T21:21:10.509Z,101264.81
2022-08-24T21:23:37.028Z,101268.53
2022-08-24T21:26:07.563Z,101274.22
2022-08-24T21:28:35.693Z,101274.72
2022-08-24T21:31:06.056Z,101275.69
2022-08-24T21:33:52.161Z,101269.16
2022-08-24T21:36:20.563Z,101269.81
2022-08-24T21:38:47.409Z,101268.00
2022-08-24T21:41:13.914Z,101266.06
2022-08-24T21:43:40.367Z,101273.00
2022-08-24T21:46:07.561Z,101275.06
2022-08-24T21:48:34.078Z,101274.97
2022-08-24T21:51:00.549Z,101276.13
2022-08-24T21:53:28.691Z,101273.03
2022-08-24T21:55:56.016Z,101289.63
2022-08-24T21:58:24.079Z,101277.38
2022-08-24T22:00:51.796Z,101278.56
2022-08-24T22:03:19.444Z,101281.59
2022-08-24T22:05:46.000Z,101274.84
2022-08-24T22:08:12.778Z,101280.72
2022-08-24T22:10:39.400Z,101278.56
2022-08-24T22:13:06.998Z,101271.69
2022-08-24T22:15:33.867Z,101281.97
2022-08-24T22:18:01.261Z,101275.91
2022-08-24T22:20:27.749Z,101274.53
2022-08-24T22:22:54.235Z,101276.28
2022-08-24T22:25:21.028Z,101279.50
2022-08-24T22:27:47.831Z,101274.66
2022-08-24T22:30:17.050Z,101275.66
2022-08-24T22:32:47.096Z,101282.38
2022-08-24T22:35:14.330Z,101285.38
2022-08-24T22:37:41.876Z,101274.28
2022-08-24T22:40:12.349Z,101281.47
2022-08-24T22:42:39.537Z,101276.31
2022-08-24T22:45:07.024Z,101279.50
2022-08-24T22:47:33.756Z,101276.69
2022-08-24T22:50:00.352Z,101282.75
2022-08-24T22:52:26.929Z,101287.47
2022-08-24T22:54:56.430Z,101283.53
2022-08-24T22:57:23.714Z,101283.34
2022-08-24T22:59:50.280Z,101282.56
2022-08-24T23:02:19.582Z,101275.50
2022-08-24T23:04:49.832Z,101281.00
2022-08-24T23:07:17.946Z,101288.13
2022-08-24T23:09:45.608Z,101283.13
2022-08-24T23:12:16.029Z,101282.03
2022-08-24T23:14:43.455Z,101278.13
2022-08-24T23:17:10.566Z,101278.81
2022-08-24T23:19:56.107Z,101284.47
2022-08-24T23:22:22.681Z,101276.63
2022-08-24T23:24:49.211Z,101278.06
2022-08-24T23:27:17.009Z,101276.41
2022-08-24T23:29:44.626Z,101274.72
2022-08-24T23:32:11.585Z,101276.94
2022-08-24T23:34:38.226Z,101281.50
2022-08-24T23:37:05.386Z,101280.59
2022-08-24T23:39:31.931Z,101274.19
2022-08-24T23:41:58.841Z,101272.44
2022-08-24T23:44:28.455Z,101275.47
2022-08-24T23:46:56.859Z,101274.22
2022-08-24T23:49:24.510Z,101275.97
2022-08-24T23:51:52.406Z,101280.22
2022-08-24T23:54:19.722Z,101284.69
2022-08-24T23:56:48.211Z,101277.94
2022-08-24T23:59:19.173Z,101278.56
